MAU121 FIMR-FIMP
Flight info
| Callsign | MAU121 |
|---|---|
| Flight time | N/A |
| Altitude | 14000 |
| Route | IMR05 DCT IMPAN IMPAN1E |
| Aircraft | AT76/M-SDFGIRY/S |
Departure
| Time | N/A |
|---|---|
| Airport | Sir Charles Gaetan Duval Airport (FIMR) |
Arrival
| Time | 2026-04-27 10:54 |
|---|---|
| Airport | Sir Seewoosagur Ramgoolam International Airport (FIMP) |
| Time | Latitude | Longitude | Altitude | Speed | Heading |
|---|---|---|---|---|---|
| 2026-04-27 10:36 | -20.29352 | 58.30469 | 13884 ft | 273 kts | 267° |
| 2026-04-27 10:36 | -20.29441 | 58.28446 | 13880 ft | 273 kts | 266° |
| 2026-04-27 10:36 | -20.29527 | 58.26445 | 13882 ft | 273 kts | 266° |
| 2026-04-27 10:36 | -20.29614 | 58.24420 | 13882 ft | 273 kts | 266° |
| 2026-04-27 10:37 | -20.29700 | 58.22416 | 13883 ft | 273 kts | 266° |
| 2026-04-27 10:37 | -20.29787 | 58.20390 | 13883 ft | 273 kts | 267° |
| 2026-04-27 10:37 | -20.29872 | 58.18360 | 13877 ft | 273 kts | 266° |
| 2026-04-27 10:37 | -20.29958 | 58.16357 | 13880 ft | 273 kts | 266° |
| 2026-04-27 10:38 | -20.30049 | 58.14335 | 13885 ft | 273 kts | 266° |
| 2026-04-27 10:38 | -20.30133 | 58.12308 | 13886 ft | 274 kts | 266° |
| 2026-04-27 10:38 | -20.30321 | 58.10300 | 13903 ft | 270 kts | 255° |
| 2026-04-27 10:38 | -20.30914 | 58.08412 | 13926 ft | 268 kts | 247° |
| 2026-04-27 10:39 | -20.31610 | 58.06567 | 13935 ft | 268 kts | 247° |
| 2026-04-27 10:39 | -20.32274 | 58.04734 | 13940 ft | 269 kts | 249° |
| 2026-04-27 10:39 | -20.32890 | 58.02834 | 13943 ft | 270 kts | 250° |
| 2026-04-27 10:39 | -20.33466 | 58.00945 | 13944 ft | 271 kts | 251° |
| 2026-04-27 10:40 | -20.34055 | 57.99029 | 13944 ft | 271 kts | 250° |
| 2026-04-27 10:40 | -20.34652 | 57.97117 | 13941 ft | 271 kts | 250° |
| 2026-04-27 10:40 | -20.35252 | 57.95230 | 13942 ft | 272 kts | 250° |
| 2026-04-27 10:40 | -20.35869 | 57.93316 | 13946 ft | 272 kts | 249° |
| 2026-04-27 10:41 | -20.36494 | 57.91407 | 13945 ft | 272 kts | 249° |
| 2026-04-27 10:41 | -20.37018 | 57.89452 | 13678 ft | 280 kts | 264° |
| 2026-04-27 10:41 | -20.36730 | 57.87381 | 13297 ft | 294 kts | 288° |
| 2026-04-27 10:41 | -20.35872 | 57.85360 | 12896 ft | 305 kts | 298° |
| 2026-04-27 10:42 | -20.34812 | 57.83357 | 12484 ft | 308 kts | 300° |
| 2026-04-27 10:42 | -20.33763 | 57.81403 | 12090 ft | 306 kts | 300° |
| 2026-04-27 10:42 | -20.32756 | 57.79407 | 11684 ft | 304 kts | 298° |
| 2026-04-27 10:42 | -20.31807 | 57.77420 | 11283 ft | 295 kts | 297° |
| 2026-04-27 10:43 | -20.30922 | 57.75515 | 10926 ft | 273 kts | 297° |
| 2026-04-27 10:43 | -20.30112 | 57.73754 | 10588 ft | 265 kts | 297° |
| 2026-04-27 10:43 | -20.29292 | 57.71995 | 10256 ft | 262 kts | 297° |
| 2026-04-27 10:43 | -20.28472 | 57.70285 | 9940 ft | 260 kts | 298° |
| 2026-04-27 10:44 | -20.27644 | 57.68574 | 9585 ft | 257 kts | 298° |
| 2026-04-27 10:44 | -20.26827 | 57.66881 | 9238 ft | 255 kts | 298° |
| 2026-04-27 10:44 | -20.26048 | 57.65264 | 8905 ft | 247 kts | 298° |
| 2026-04-27 10:44 | -20.25257 | 57.63618 | 8569 ft | 245 kts | 298° |
| 2026-04-27 10:45 | -20.24470 | 57.61983 | 8236 ft | 250 kts | 298° |
| 2026-04-27 10:45 | -20.23663 | 57.60319 | 7895 ft | 255 kts | 298° |
| 2026-04-27 10:45 | -20.22856 | 57.58654 | 7559 ft | 256 kts | 298° |
| 2026-04-27 10:45 | -20.22043 | 57.56969 | 7224 ft | 252 kts | 298° |
| 2026-04-27 10:46 | -20.21566 | 57.55210 | 6790 ft | 250 kts | 269° |
| 2026-04-27 10:46 | -20.22059 | 57.53477 | 6360 ft | 249 kts | 234° |
| 2026-04-27 10:46 | -20.23343 | 57.52321 | 5916 ft | 243 kts | 200° |
| 2026-04-27 10:46 | -20.24970 | 57.52075 | 5529 ft | 233 kts | 174° |
| 2026-04-27 10:47 | -20.26578 | 57.52220 | 5216 ft | 234 kts | 171° |
| 2026-04-27 10:47 | -20.28176 | 57.52387 | 4839 ft | 224 kts | 173° |
| 2026-04-27 10:47 | -20.29705 | 57.52399 | 4498 ft | 215 kts | 178° |
| 2026-04-27 10:47 | -20.31161 | 57.52259 | 4134 ft | 208 kts | 185° |
| 2026-04-27 10:48 | -20.32557 | 57.52009 | 3782 ft | 197 kts | 186° |
| 2026-04-27 10:48 | -20.33851 | 57.51815 | 3464 ft | 174 kts | 168° |
| 2026-04-27 10:48 | -20.34798 | 57.52354 | 3290 ft | 150 kts | 131° |
| 2026-04-27 10:48 | -20.35468 | 57.53172 | 3098 ft | 143 kts | 123° |
| 2026-04-27 10:49 | -20.36018 | 57.54007 | 2935 ft | 127 kts | 119° |
| 2026-04-27 10:49 | -20.36452 | 57.54747 | 2763 ft | 110 kts | 116° |
| 2026-04-27 10:49 | -20.36811 | 57.55410 | 2602 ft | 101 kts | 114° |
| 2026-04-27 10:49 | -20.37153 | 57.56095 | 2461 ft | 104 kts | 114° |
| 2026-04-27 10:50 | -20.37535 | 57.56759 | 2255 ft | 110 kts | 116° |
| 2026-04-27 10:50 | -20.37898 | 57.57475 | 2190 ft | 109 kts | 111° |
| 2026-04-27 10:50 | -20.38228 | 57.58232 | 2047 ft | 115 kts | 110° |
| 2026-04-27 10:50 | -20.38557 | 57.59013 | 1905 ft | 118 kts | 111° |
| 2026-04-27 10:51 | -20.38904 | 57.59804 | 1755 ft | 113 kts | 112° |
| 2026-04-27 10:51 | -20.39253 | 57.60546 | 1506 ft | 114 kts | 113° |
| 2026-04-27 10:51 | -20.39633 | 57.61285 | 1288 ft | 112 kts | 115° |
| 2026-04-27 10:51 | -20.39992 | 57.62009 | 1148 ft | 108 kts | 114° |
| 2026-04-27 10:52 | -20.40331 | 57.62725 | 1020 ft | 109 kts | 112° |
| 2026-04-27 10:52 | -20.40665 | 57.63447 | 892 ft | 108 kts | 110° |
| 2026-04-27 10:52 | -20.40994 | 57.64160 | 818 ft | 106 kts | 112° |
| 2026-04-27 10:52 | -20.41219 | 57.64628 | 787 ft | 107 kts | 113° |
| 2026-04-27 10:53 | -20.41663 | 57.65609 | 597 ft | 117 kts | 114° |
| 2026-04-27 10:53 | -20.42430 | 57.67120 | 239 ft | 110 kts | 111° |
| 2026-04-27 10:53 | -20.42755 | 57.67804 | 163 ft | 96 kts | 109° |
| 2026-04-27 10:54 | -20.42920 | 57.68168 | 150 ft | 31 kts | 121° |
| 2026-04-27 10:54 | -20.43039 | 57.68403 | 144 ft | 34 kts | 116° |
| 2026-04-27 10:54 | -20.43115 | 57.68472 | 142 ft | 13 kts | 192° |
| 2026-04-27 10:54 | -20.43154 | 57.68448 | 143 ft | 0 kts | 208° |
| 2026-04-27 10:55 | -20.43182 | 57.68434 | 142 ft | 9 kts | 204° |
| 2026-04-27 10:55 | -20.43231 | 57.68384 | 143 ft | 5 kts | 285° |
| 2026-04-27 10:55 | -20.43215 | 57.68356 | 144 ft | 5 kts | 301° |
| 2026-04-27 10:55 | -20.43200 | 57.68324 | 145 ft | 5 kts | 295° |
| 2026-04-27 10:56 | -20.43183 | 57.68286 | 146 ft | 6 kts | 295° |
| 2026-04-27 10:56 | -20.43163 | 57.68245 | 147 ft | 6 kts | 303° |
| 2026-04-27 10:56 | -20.43147 | 57.68213 | 148 ft | 5 kts | 297° |
| 2026-04-27 10:56 | -20.43130 | 57.68180 | 149 ft | 5 kts | 297° |
| 2026-04-27 10:57 | -20.43113 | 57.68143 | 150 ft | 6 kts | 297° |
| 2026-04-27 10:57 | -20.43094 | 57.68106 | 151 ft | 6 kts | 297° |
| 2026-04-27 10:57 | -20.43077 | 57.68071 | 152 ft | 5 kts | 297° |
| 2026-04-27 10:57 | -20.43061 | 57.68039 | 153 ft | 5 kts | 298° |
| 2026-04-27 10:58 | -20.43046 | 57.68006 | 154 ft | 5 kts | 295° |
| 2026-04-27 10:58 | -20.43030 | 57.67970 | 154 ft | 6 kts | 295° |
| 2026-04-27 10:58 | -20.43013 | 57.67934 | 155 ft | 5 kts | 297° |
| 2026-04-27 10:58 | -20.42990 | 57.67889 | 157 ft | 10 kts | 298° |
| 2026-04-27 10:59 | -20.42961 | 57.67828 | 158 ft | 9 kts | 295° |
| 2026-04-27 10:59 | -20.42933 | 57.67768 | 160 ft | 9 kts | 297° |
| 2026-04-27 10:59 | -20.42907 | 57.67717 | 162 ft | 7 kts | 300° |
| 2026-04-27 11:00 | -20.42869 | 57.67642 | 164 ft | 8 kts | 295° |
| 2026-04-27 11:00 | -20.42860 | 57.67623 | 164 ft | 9 kts | 295° |